createdAt,value
2022-07-31T17:01:53.827Z,86.46
2022-07-31T17:02:07.032Z,87.33
2022-07-31T17:03:06.928Z,86.22
2022-07-31T17:04:06.910Z,87.29
2022-07-31T17:05:06.896Z,86.61
2022-07-31T17:06:06.875Z,87.09
2022-07-31T17:07:07.289Z,87.96
2022-07-31T17:08:06.845Z,87.48
2022-07-31T17:09:17.544Z,87.38
2022-07-31T17:10:06.809Z,86.80
2022-07-31T17:11:06.790Z,87.38
2022-07-31T17:12:07.208Z,87.58
2022-07-31T17:13:06.751Z,87.38
2022-07-31T17:14:06.734Z,87.09
2022-07-31T17:15:06.715Z,87.24
2022-07-31T17:16:06.701Z,86.86
2022-07-31T17:17:07.000Z,87.44
2022-07-31T17:18:06.660Z,88.12
2022-07-31T17:19:06.641Z,87.63
2022-07-31T17:20:06.631Z,88.41
2022-07-31T17:21:06.606Z,88.60
2022-07-31T17:22:07.375Z,89.57
2022-07-31T17:23:08.725Z,90.16
2022-07-31T17:24:06.551Z,89.76
2022-07-31T17:25:06.537Z,88.89
2022-07-31T17:26:06.517Z,90.20
2022-07-31T17:27:07.066Z,91.37
2022-07-31T17:28:06.483Z,90.20
2022-07-31T17:29:06.463Z,90.88
2022-07-31T17:30:06.446Z,93.94
2022-07-31T17:31:06.427Z,95.64
2022-07-31T17:32:06.409Z,93.79
2022-07-31T17:33:06.388Z,95.49
2022-07-31T17:34:09.286Z,97.42
2022-07-31T17:35:06.354Z,96.65
2022-07-31T17:36:06.336Z,97.91
2022-07-31T17:37:06.661Z,97.72
2022-07-31T17:38:06.291Z,96.55
2022-07-31T17:39:06.278Z,98.00
2022-07-31T17:40:21.573Z,98.49
2022-07-31T17:41:06.238Z,98.00
2022-07-31T17:42:06.220Z,97.23
2022-07-31T17:43:06.199Z,97.62
2022-07-31T17:44:06.183Z,97.91
2022-07-31T17:45:06.165Z,98.10
2022-07-31T17:46:09.289Z,97.91
2022-07-31T17:47:06.472Z,98.88
2022-07-31T17:48:06.106Z,98.68
2022-07-31T17:49:06.364Z,98.78
2022-07-31T17:50:06.066Z,98.97
2022-07-31T17:51:06.047Z,99.65
2022-07-31T17:52:06.029Z,99.99
2022-07-31T17:53:06.007Z,99.99
2022-07-31T17:54:05.990Z,99.99
2022-07-31T17:55:05.971Z,99.99
2022-07-31T17:56:08.195Z,99.99
2022-07-31T17:57:05.934Z,99.99
2022-07-31T17:58:05.921Z,99.99
2022-07-31T17:59:05.898Z,99.99
2022-07-31T18:00:05.873Z,99.99
2022-07-31T18:01:05.857Z,99.99
2022-07-31T18:02:06.173Z,99.99
2022-07-31T18:03:05.816Z,99.99
2022-07-31T18:04:05.795Z,99.99
2022-07-31T18:05:05.775Z,99.99
2022-07-31T18:06:05.757Z,99.99
2022-07-31T18:07:05.738Z,99.99
2022-07-31T18:08:05.717Z,99.99
2022-07-31T18:09:05.696Z,99.99
2022-07-31T18:10:05.698Z,99.99
2022-07-31T18:11:05.657Z,99.99
2022-07-31T18:12:05.978Z,99.99
2022-07-31T18:13:05.621Z,99.99
2022-07-31T18:14:05.604Z,99.99
2022-07-31T18:15:05.589Z,99.99
2022-07-31T18:16:05.562Z,99.99
2022-07-31T18:17:05.543Z,99.99
2022-07-31T18:18:05.523Z,99.99
2022-07-31T18:19:05.502Z,99.99
2022-07-31T18:20:05.482Z,99.99
2022-07-31T18:21:05.464Z,99.99
2022-07-31T18:22:05.814Z,99.99
2022-07-31T18:23:05.425Z,99.99
2022-07-31T18:24:05.622Z,99.99
2022-07-31T18:25:05.383Z,99.99
2022-07-31T18:26:05.364Z,99.99
2022-07-31T18:27:05.348Z,99.99
2022-07-31T18:28:05.330Z,99.99
2022-07-31T18:29:05.331Z,99.99
2022-07-31T18:30:05.281Z,99.99
2022-07-31T18:31:05.264Z,99.99
2022-07-31T18:32:05.657Z,99.99
2022-07-31T18:33:05.228Z,99.99
2022-07-31T18:34:05.212Z,99.99
2022-07-31T18:35:05.186Z,99.99
2022-07-31T18:36:05.170Z,99.99
2022-07-31T18:37:05.143Z,99.99
2022-07-31T18:38:05.128Z,99.99
2022-07-31T18:39:05.109Z,99.99
2022-07-31T18:40:05.085Z,99.99
2022-07-31T18:41:05.075Z,99.99
2022-07-31T18:42:05.235Z,99.99
2022-07-31T18:43:05.027Z,99.99
2022-07-31T18:44:05.010Z,99.99
2022-07-31T18:45:04.987Z,99.99
2022-07-31T18:46:04.968Z,99.99
2022-07-31T18:47:04.952Z,99.99
2022-07-31T18:48:04.931Z,99.99
2022-07-31T18:49:04.954Z,99.99
2022-07-31T18:51:01.205Z,99.99
2022-07-31T18:51:05.471Z,99.99
2022-07-31T18:52:05.121Z,99.99
2022-07-31T18:53:04.829Z,99.99
2022-07-31T18:54:04.804Z,99.99
2022-07-31T18:55:04.821Z,99.99
2022-07-31T18:56:04.773Z,99.99
2022-07-31T18:57:04.746Z,99.99
2022-07-31T18:58:04.727Z,99.99
2022-07-31T18:59:04.704Z,99.99
2022-07-31T19:00:04.689Z,99.99
2022-07-31T19:01:04.669Z,99.99
2022-07-31T19:02:05.071Z,99.99
2022-07-31T19:03:04.624Z,99.99
2022-07-31T19:04:04.606Z,99.99
2022-07-31T19:05:04.584Z,99.99
2022-07-31T19:06:04.564Z,99.99
2022-07-31T19:07:04.544Z,99.99
2022-07-31T19:08:04.523Z,99.99
2022-07-31T19:09:04.506Z,99.99
2022-07-31T19:10:04.479Z,99.99
2022-07-31T19:11:04.463Z,99.99
2022-07-31T19:12:08.236Z,99.99
2022-07-31T19:13:04.417Z,99.99
2022-07-31T19:14:04.397Z,99.99
2022-07-31T19:15:04.381Z,99.99
2022-07-31T19:16:04.357Z,99.99
2022-07-31T19:17:04.336Z,99.99
2022-07-31T19:18:04.311Z,99.99
2022-07-31T19:19:04.297Z,99.99
2022-07-31T19:20:04.277Z,99.99
2022-07-31T19:21:18.022Z,99.99
2022-07-31T19:22:04.435Z,99.99
2022-07-31T19:23:04.213Z,99.99
2022-07-31T19:24:04.189Z,99.99
2022-07-31T19:25:04.164Z,99.99
2022-07-31T19:26:04.816Z,99.99
2022-07-31T19:27:04.124Z,99.99
2022-07-31T19:28:04.103Z,99.99
2022-07-31T19:29:04.086Z,99.99
2022-07-31T19:30:04.061Z,99.99
2022-07-31T19:31:04.038Z,99.99
2022-07-31T19:32:04.392Z,99.99
2022-07-31T19:33:03.996Z,99.99
2022-07-31T19:34:03.972Z,99.99
2022-07-31T19:35:03.955Z,99.99
2022-07-31T19:36:03.929Z,99.99
2022-07-31T19:37:03.911Z,99.99
2022-07-31T19:38:03.889Z,99.99
2022-07-31T19:39:03.865Z,99.99
2022-07-31T19:40:03.843Z,99.99
2022-07-31T19:41:03.824Z,99.99
2022-07-31T19:42:11.715Z,99.99
2022-07-31T19:43:03.784Z,99.99
2022-07-31T19:44:03.757Z,99.99
2022-07-31T19:45:03.736Z,99.99
2022-07-31T19:46:11.264Z,99.99
2022-07-31T19:47:03.693Z,99.99
2022-07-31T19:48:03.668Z,99.99
2022-07-31T19:49:03.775Z,99.99
2022-07-31T19:50:03.623Z,99.99
2022-07-31T19:51:03.603Z,99.99
2022-07-31T19:52:03.838Z,99.99
2022-07-31T19:53:03.560Z,99.99
2022-07-31T19:54:03.537Z,99.99
2022-07-31T19:55:03.517Z,99.99
2022-07-31T19:56:03.493Z,99.99
2022-07-31T19:57:03.473Z,99.99
2022-07-31T19:58:03.449Z,99.99
2022-07-31T19:59:03.435Z,99.99
2022-07-31T20:00:03.406Z,99.99
2022-07-31T20:01:03.406Z,99.99
2022-07-31T20:02:03.706Z,99.99
2022-07-31T20:03:03.427Z,99.99
2022-07-31T20:04:03.321Z,99.99
2022-07-31T20:05:03.296Z,99.99
2022-07-31T20:06:03.275Z,99.99
2022-07-31T20:07:03.255Z,99.99
2022-07-31T20:08:03.232Z,99.99
2022-07-31T20:09:03.209Z,99.99
2022-07-31T20:10:03.189Z,99.99
2022-07-31T20:11:03.693Z,99.99
2022-07-31T20:12:03.611Z,99.99
2022-07-31T20:13:03.131Z,99.99
2022-07-31T20:14:03.102Z,99.99
2022-07-31T20:15:03.082Z,99.99
2022-07-31T20:16:03.062Z,99.99
2022-07-31T20:17:03.038Z,99.99
2022-07-31T20:18:03.013Z,99.99
2022-07-31T20:19:02.993Z,99.99
2022-07-31T20:20:15.395Z,99.99
2022-07-31T20:21:02.955Z,99.99
2022-07-31T20:22:03.322Z,99.99
2022-07-31T20:23:02.906Z,99.99
2022-07-31T20:24:02.908Z,99.99
2022-07-31T20:25:02.860Z,99.99
2022-07-31T20:26:02.839Z,99.99
2022-07-31T20:27:02.816Z,99.99
2022-07-31T20:28:02.797Z,99.99
2022-07-31T20:29:02.778Z,99.99
2022-07-31T20:30:02.750Z,99.99
2022-07-31T20:31:02.731Z,99.99
2022-07-31T20:32:03.047Z,99.99
2022-07-31T20:33:02.688Z,99.99
2022-07-31T20:34:02.664Z,99.99
2022-07-31T20:35:02.647Z,99.99
2022-07-31T20:36:02.624Z,99.99
2022-07-31T20:37:02.599Z,99.99
2022-07-31T20:38:02.577Z,99.99
2022-07-31T20:39:02.555Z,99.99
2022-07-31T20:40:02.531Z,99.99
2022-07-31T20:41:02.508Z,99.99
2022-07-31T20:42:02.832Z,99.99
2022-07-31T20:43:02.465Z,99.99
2022-07-31T20:44:02.442Z,99.99
2022-07-31T20:45:02.421Z,99.99
2022-07-31T20:46:02.397Z,99.99
2022-07-31T20:47:02.379Z,99.99
2022-07-31T20:48:02.355Z,99.99
2022-07-31T20:49:02.451Z,99.99
2022-07-31T20:50:02.312Z,99.99
2022-07-31T20:51:02.291Z,99.99
2022-07-31T20:52:02.512Z,99.99
2022-07-31T20:53:02.244Z,99.99
2022-07-31T20:54:02.218Z,99.99
2022-07-31T20:55:02.201Z,99.99
2022-07-31T20:56:02.178Z,99.99
2022-07-31T20:57:02.157Z,99.99
2022-07-31T20:58:02.135Z,99.99
2022-07-31T20:59:02.113Z,99.99
2022-07-31T21:00:02.095Z,99.99
2022-07-31T21:01:02.103Z,99.99
2022-07-31T21:02:02.269Z,99.99
2022-07-31T21:03:02.032Z,99.99
2022-07-31T21:04:02.001Z,99.99
2022-07-31T21:05:01.984Z,99.99
2022-07-31T21:06:01.958Z,99.99
2022-07-31T21:07:01.933Z,99.99
2022-07-31T21:08:01.913Z,99.99
2022-07-31T21:09:04.598Z,99.99
2022-07-31T21:10:01.865Z,99.99
2022-07-31T21:11:01.846Z,99.99
2022-07-31T21:12:02.006Z,99.99
2022-07-31T21:13:01.802Z,99.99
2022-07-31T21:14:01.778Z,99.99
2022-07-31T21:15:01.755Z,99.99
2022-07-31T21:16:01.734Z,99.99
2022-07-31T21:17:01.715Z,99.99
2022-07-31T21:18:01.687Z,99.99
2022-07-31T21:19:01.665Z,99.99
2022-07-31T21:20:01.645Z,99.99
2022-07-31T21:21:01.621Z,99.99
2022-07-31T21:22:01.614Z,99.99
2022-07-31T21:23:01.581Z,99.99
2022-07-31T21:24:01.558Z,99.99
2022-07-31T21:25:01.538Z,99.99
2022-07-31T21:26:01.506Z,99.99
2022-07-31T21:27:01.483Z,99.99
2022-07-31T21:28:01.463Z,99.99
2022-07-31T21:29:01.444Z,99.99
2022-07-31T21:30:01.420Z,99.99
2022-07-31T21:31:01.395Z,99.99
2022-07-31T21:32:01.373Z,99.99
2022-07-31T21:33:01.351Z,99.99
2022-07-31T21:34:01.330Z,99.99
2022-07-31T21:35:01.308Z,99.99
2022-07-31T21:36:01.287Z,99.99
2022-07-31T21:37:01.263Z,99.99
2022-07-31T21:38:01.237Z,99.99
2022-07-31T21:39:01.217Z,99.99
2022-07-31T21:40:01.193Z,99.99
2022-07-31T21:41:01.174Z,99.99
2022-07-31T21:42:01.151Z,99.99
2022-07-31T21:43:01.127Z,99.99
2022-07-31T21:44:01.104Z,99.99
2022-07-31T21:45:01.078Z,99.99
2022-07-31T21:46:01.560Z,99.99
2022-07-31T21:47:01.034Z,99.99
2022-07-31T21:48:01.013Z,99.99
2022-07-31T21:49:01.054Z,99.99
2022-07-31T21:50:00.968Z,99.99
2022-07-31T21:51:00.947Z,99.99
2022-07-31T21:52:00.923Z,99.99
2022-07-31T21:53:00.902Z,99.99
2022-07-31T21:54:00.877Z,99.99
2022-07-31T21:55:00.855Z,99.99
2022-07-31T21:56:00.884Z,99.99
2022-07-31T21:57:00.818Z,99.99
2022-07-31T21:58:00.789Z,99.99
2022-07-31T21:59:00.764Z,99.99
2022-07-31T22:00:00.743Z,99.99
2022-07-31T22:01:00.760Z,99.99
2022-07-31T22:02:02.182Z,99.99
2022-07-31T22:03:00.676Z,99.99
2022-07-31T22:04:00.654Z,99.99
2022-07-31T22:05:00.631Z,99.99
2022-07-31T22:06:00.608Z,99.99
2022-07-31T22:07:00.587Z,99.99
2022-07-31T22:08:00.563Z,99.99
2022-07-31T22:09:00.541Z,99.99
2022-07-31T22:10:00.517Z,99.99
2022-07-31T22:11:00.500Z,99.99
2022-07-31T22:12:01.659Z,99.99
2022-07-31T22:13:00.451Z,99.99
2022-07-31T22:14:00.429Z,99.99
2022-07-31T22:15:00.414Z,99.99
2022-07-31T22:16:01.041Z,99.99
2022-07-31T22:17:00.360Z,99.99
2022-07-31T22:18:00.342Z,99.99
2022-07-31T22:19:00.318Z,99.99
2022-07-31T22:20:00.294Z,99.99
2022-07-31T22:21:00.297Z,99.99
2022-07-31T22:22:00.250Z,99.99
2022-07-31T22:23:00.224Z,99.99
2022-07-31T22:24:00.203Z,99.99
2022-07-31T22:25:00.204Z,99.99
2022-07-31T22:26:00.161Z,99.99
2022-07-31T22:27:00.134Z,99.99
2022-07-31T22:28:00.111Z,99.99
2022-07-31T22:29:00.091Z,99.99
2022-07-31T22:30:00.073Z,99.99
2022-07-31T22:31:00.050Z,99.99
2022-07-31T22:32:00.025Z,99.99
2022-07-31T22:33:00.003Z,99.99
2022-07-31T22:33:59.976Z,99.99
2022-07-31T22:34:59.958Z,99.99
2022-07-31T22:36:00.743Z,99.99
2022-07-31T22:36:59.910Z,99.99
2022-07-31T22:37:59.891Z,99.99
2022-07-31T22:38:59.870Z,99.99
2022-07-31T22:39:59.844Z,99.99
2022-07-31T22:40:59.828Z,99.99
2022-07-31T22:42:00.479Z,99.99
2022-07-31T22:42:59.778Z,99.99
2022-07-31T22:44:10.268Z,99.99
2022-07-31T22:44:59.733Z,99.99
2022-07-31T22:45:59.713Z,99.99
2022-07-31T22:46:59.687Z,99.99
2022-07-31T22:47:59.667Z,99.99
2022-07-31T22:48:59.727Z,99.99
2022-07-31T22:49:59.619Z,99.99
2022-07-31T22:50:59.597Z,99.99
2022-07-31T22:51:59.576Z,99.99
2022-07-31T22:52:59.553Z,99.99
2022-07-31T22:53:59.529Z,99.99
2022-07-31T22:54:59.509Z,99.99
2022-07-31T22:55:59.483Z,99.99
2022-07-31T22:56:59.467Z,99.99
2022-07-31T22:57:59.440Z,99.99
2022-07-31T22:58:59.419Z,99.99
2022-07-31T22:59:59.395Z,99.99
2022-07-31T23:00:59.376Z,99.99
2022-07-31T23:01:59.430Z,99.99
2022-07-31T23:02:59.329Z,99.99
2022-07-31T23:03:59.307Z,99.99
2022-07-31T23:04:59.286Z,99.99
2022-07-31T23:06:13.166Z,99.99
2022-07-31T23:06:59.243Z,99.99
2022-07-31T23:07:59.223Z,99.99
2022-07-31T23:08:59.194Z,99.99
2022-07-31T23:09:59.170Z,99.99
2022-07-31T23:10:59.150Z,99.99
2022-07-31T23:11:59.130Z,99.99
2022-07-31T23:12:59.102Z,99.99
2022-07-31T23:13:59.082Z,99.99
2022-07-31T23:14:59.059Z,99.99
2022-07-31T23:15:59.758Z,99.99
2022-07-31T23:16:59.014Z,99.99
2022-07-31T23:17:58.991Z,99.99
2022-07-31T23:18:58.972Z,99.99
2022-07-31T23:19:58.948Z,99.99
2022-07-31T23:20:58.927Z,99.99
2022-07-31T23:21:58.900Z,99.99
2022-07-31T23:22:58.880Z,99.99
2022-07-31T23:23:58.857Z,99.99
2022-07-31T23:24:58.834Z,99.99
2022-07-31T23:25:58.811Z,99.99
2022-07-31T23:26:58.790Z,99.99
2022-07-31T23:27:58.766Z,99.99
2022-07-31T23:28:58.745Z,99.99
2022-07-31T23:29:58.793Z,99.99
2022-07-31T23:30:58.701Z,99.99
2022-07-31T23:31:58.677Z,99.99
2022-07-31T23:32:58.655Z,99.99
2022-07-31T23:33:58.629Z,99.99
2022-07-31T23:34:58.610Z,99.99
2022-07-31T23:35:58.586Z,99.99
2022-07-31T23:36:58.568Z,99.99
2022-07-31T23:37:58.543Z,99.99
2022-07-31T23:38:58.520Z,99.99
2022-07-31T23:39:58.533Z,99.99
2022-07-31T23:40:58.476Z,99.99
2022-07-31T23:41:58.451Z,99.99
2022-07-31T23:42:58.426Z,99.99
2022-07-31T23:43:58.407Z,99.99
2022-07-31T23:44:58.383Z,99.99
2022-07-31T23:45:58.360Z,99.99
2022-07-31T23:46:58.339Z,99.99
2022-07-31T23:47:58.976Z,99.99
2022-07-31T23:48:58.354Z,99.99
2022-07-31T23:49:58.270Z,99.87
2022-07-31T23:50:58.243Z,99.99
2022-07-31T23:51:58.225Z,99.63
2022-07-31T23:52:58.203Z,99.63
2022-07-31T23:53:58.180Z,99.44
2022-07-31T23:54:58.156Z,99.15
2022-07-31T23:55:58.132Z,98.82
2022-07-31T23:56:58.110Z,98.38
2022-07-31T23:57:58.088Z,97.33
2022-07-31T23:58:58.065Z,97.71
2022-07-31T23:59:58.043Z,97.24
